Time;durP1;ratioP1;P1;durP2;ratioP2;P2;SDS_P1;SDS_P2;PMS_P1;PMS_P2;Temp;Humidity;BMP_temperature;BMP_pressure;BME280_temperature;BME280_humidity;BME280_pressure;Samples;Min_cycle;Max_cycle;Signal;HPM_P1;HPM_P2
2023/06/24 00:02:14;;;;;;;2.87;1.70;;;22.30;99.90;;;22.49;56.29;102034.16;4915378;28;98484;-42
2023/06/24 00:04:39;;;;;;;2.13;1.77;;;22.20;99.90;;;22.49;56.34;102034.16;4941582;28;97407;-43
2023/06/24 00:07:06;;;;;;;2.73;1.97;;;22.30;99.90;;;22.52;56.30;102033.94;4942216;28;97591;-42
2023/06/24 00:09:32;;;;;;;3.30;2.00;;;22.30;99.90;;;22.53;56.10;102031.16;4941855;28;98926;-42
2023/06/24 00:11:59;;;;;;;2.30;1.83;;;22.40;99.90;;;22.55;56.08;102028.38;4942764;28;109602;-43
2023/06/24 00:14:27;;;;;;;2.00;1.30;;;22.40;99.90;;;22.56;56.09;102030.09;4943863;28;99077;-44
2023/06/24 00:16:54;;;;;;;1.30;1.20;;;22.40;99.90;;;22.56;56.00;102030.09;4942847;28;103100;-42
2023/06/24 00:19:21;;;;;;;1.80;1.60;;;22.50;99.90;;;22.57;56.05;102031.84;4942274;28;99926;-44
2023/06/24 00:21:51;;;;;;;2.43;1.80;;;22.50;99.90;;;22.60;56.08;102034.34;4946846;28;98448;-42
2023/06/24 00:24:25;;;;;;;2.53;1.70;;;22.50;99.90;;;22.64;55.79;102033.16;4909363;28;98201;-44
2023/06/24 00:26:53;;;;;;;2.17;1.50;;;22.60;99.90;;;22.64;55.77;102030.47;4943420;28;100009;-42
2023/06/24 00:29:19;;;;;;;2.37;1.77;;;22.60;99.90;;;22.66;55.73;102028.53;4945901;28;97395;-47
2023/06/24 00:34:20;;;;;;;2.27;2.00;;;22.60;99.90;;;22.68;55.57;102028.44;5137707;22;98738;-55
2023/06/24 00:36:50;;;;;;;1.93;1.47;;;22.60;99.90;;;22.68;55.78;102028.44;4968831;28;98308;-56
2023/06/24 00:39:15;;;;;;;2.27;1.60;;;22.60;99.90;;;22.67;55.75;102027.59;4967734;28;97414;-56
2023/06/24 00:41:42;;;;;;;1.67;1.37;;;22.60;99.90;;;22.68;55.65;102025.75;4965690;28;97698;-54
2023/06/24 00:44:08;;;;;;;2.10;1.90;;;22.60;99.90;;;22.69;55.74;102020.28;4967299;28;99356;-54
2023/06/24 00:46:35;;;;;;;2.10;1.90;;;22.70;99.90;;;22.73;55.61;102027.19;4953627;28;112903;-55
2023/06/24 00:49:02;;;;;;;2.00;1.80;;;22.70;99.90;;;22.74;55.54;102023.53;4962861;28;97551;-55
2023/06/24 00:51:33;;;;;;;2.20;1.60;;;22.60;99.90;;;22.75;55.55;102029.78;4971798;28;98012;-56
2023/06/24 00:54:00;;;;;;;2.67;1.93;;;22.70;99.90;;;22.75;55.50;102033.34;4959034;28;101339;-60
2023/06/24 00:56:31;;;;;;;4.40;2.60;;;22.70;99.90;;;22.76;55.71;102035.06;4952585;28;100507;-57
2023/06/24 00:59:04;;;;;;;1.93;1.77;;;22.60;99.90;;;22.74;55.66;102028.94;4971701;28;103313;-53
2023/06/24 01:01:35;;;;;;;1.97;1.77;;;22.60;99.90;;;22.69;55.63;102028.34;4963017;27;97255;-57
2023/06/24 01:04:02;;;;;;;2.93;2.07;;;22.50;99.90;;;22.67;55.72;102022.19;4956362;27;98758;-56
2023/06/24 01:06:29;;;;;;;1.67;1.47;;;22.50;99.90;;;22.66;55.80;102025.84;4960811;28;97546;-54
2023/06/24 01:09:00;;;;;;;1.90;1.70;;;22.50;99.90;;;22.67;55.92;102032.97;4951387;28;102359;-54
2023/06/24 01:11:27;;;;;;;2.97;1.87;;;22.50;99.90;;;22.66;55.72;102028.53;4966819;28;97333;-52
2023/06/24 01:13:53;;;;;;;2.83;2.10;;;22.50;99.90;;;22.65;55.88;102034.88;4966514;28;97686;-53
2023/06/24 01:16:45;;;;;;;2.03;1.83;;;22.50;99.90;;;22.67;55.93;102032.97;4969854;27;97595;-57
2023/06/24 01:20:13;;;;;;;2.40;1.70;;;22.50;99.90;;;22.66;55.76;102028.53;4949399;28;101829;-57
2023/06/24 01:23:11;;;;;;;2.37;1.73;;;22.50;99.90;;;22.66;55.81;102031.22;4959567;28;97321;-57
2023/06/24 01:25:59;;;;;;;1.93;1.67;;;22.50;99.90;;;22.66;55.83;102030.38;4937991;27;100235;-56
2023/06/24 01:28:43;;;;;;;2.63;1.83;;;22.50;99.90;;;22.65;55.86;102020.56;4969235;28;105939;-56
2023/06/24 01:31:41;;;;;;;2.20;1.70;;;22.50;99.90;;;22.64;55.94;102022.41;4959540;28;101816;-57
2023/06/24 01:34:36;;;;;;;2.60;1.83;;;22.50;99.90;;;22.64;55.85;102014.34;4949518;28;98474;-56
2023/06/24 01:37:10;;;;;;;3.03;2.00;;;22.50;99.90;;;22.64;55.93;102011.66;4956865;28;97566;-58
2023/06/24 01:39:52;;;;;;;2.40;1.90;;;22.50;99.90;;;22.64;56.00;102010.78;4949358;28;97576;-57
2023/06/24 01:42:21;;;;;;;3.50;2.13;;;22.50;99.90;;;22.62;56.01;102012.72;4953553;28;99020;-55
2023/06/24 01:44:49;;;;;;;3.37;1.90;;;22.50;99.90;;;22.61;55.84;102011.84;4945522;28;97687;-56
2023/06/24 01:47:23;;;;;;;3.83;2.53;;;22.50;99.90;;;22.62;56.06;102012.72;4944364;28;98434;-55
2023/06/24 01:49:52;;;;;;;4.03;2.30;;;22.50;99.90;;;22.60;56.11;102017.34;4944365;28;98020;-56
2023/06/24 01:52:21;;;;;;;2.73;1.90;;;22.50;99.90;;;22.61;55.87;102011.84;4960759;28;97518;-55
2023/06/24 01:54:48;;;;;;;1.97;1.63;;;22.50;99.90;;;22.62;56.05;102018.09;4944419;28;97551;-54
2023/06/24 01:57:16;;;;;;;3.70;2.10;;;22.50;99.90;;;22.61;56.06;102019.94;4955763;28;97509;-53
2023/06/24 01:59:45;;;;;;;3.10;2.00;;;22.50;99.90;;;22.60;56.05;102015.50;4946451;27;116445;-56
2023/06/24 02:02:12;;;;;;;2.37;1.60;;;22.50;99.90;;;22.60;55.97;102015.50;4956656;27;97672;-54
2023/06/24 02:04:39;;;;;;;2.47;1.90;;;22.50;99.90;;;22.60;56.32;102020.88;4958242;28;105272;-52
2023/06/24 02:07:08;;;;;;;2.53;2.13;;;22.50;99.90;;;22.60;56.05;102015.50;4948633;28;97950;-55
2023/06/24 02:09:35;;;;;;;2.37;1.70;;;22.50;99.90;;;22.60;56.05;102014.66;4946753;28;100038;-54
2023/06/24 02:12:03;;;;;;;2.83;2.00;;;22.50;99.90;;;22.62;56.14;102021.66;4953396;28;116403;-52
2023/06/24 02:14:30;;;;;;;3.70;1.80;;;22.50;99.90;;;22.62;56.09;102013.59;4964528;28;98099;-51
2023/06/24 02:17:00;;;;;;;3.10;1.90;;;22.50;99.90;;;22.63;56.03;102009.94;4948178;28;97680;-54
2023/06/24 02:19:30;;;;;;;1.80;1.50;;;22.50;99.90;;;22.64;55.92;102006.28;4931028;27;99618;-53
2023/06/24 02:21:59;;;;;;;2.47;1.53;;;22.50;99.90;;;22.64;55.80;102010.78;4962479;28;98344;-54
2023/06/24 02:24:27;;;;;;;2.17;1.87;;;22.50;99.90;;;22.64;55.98;102011.66;4944406;28;97118;-56
2023/06/24 02:26:54;;;;;;;2.70;1.83;;;22.50;99.90;;;22.63;55.92;102015.31;4963911;28;97387;-53
2023/06/24 02:29:22;;;;;;;2.93;1.83;;;22.50;99.90;;;22.64;55.92;102021.53;4949413;28;98900;-55
2023/06/24 02:31:47;;;;;;;2.40;1.53;;;22.50;99.90;;;22.64;55.86;102014.34;4975475;27;99614;-54
2023/06/24 02:34:15;;;;;;;2.67;2.03;;;22.50;99.90;;;22.64;55.85;102011.66;4980804;28;105516;-52
2023/06/24 02:36:41;;;;;;;2.13;1.90;;;22.60;99.90;;;22.64;55.88;102011.66;4959454;28;97341;-55
2023/06/24 02:39:06;;;;;;;1.87;1.57;;;22.60;99.90;;;22.65;55.92;102001.75;4977199;28;107672;-55
2023/06/24 02:41:32;;;;;;;3.20;1.80;;;22.60;99.90;;;22.65;55.98;102008.00;4971030;28;112478;-54
2023/06/24 02:43:58;;;;;;;2.57;2.00;;;22.60;99.90;;;22.65;55.86;102008.00;4974785;28;97368;-55
2023/06/24 02:46:25;;;;;;;2.13;1.70;;;22.60;99.90;;;22.64;56.00;102005.41;4974975;28;97369;-56
2023/06/24 02:48:52;;;;;;;2.60;1.83;;;22.50;99.90;;;22.64;56.02;102010.78;4970563;28;98101;-56
2023/06/24 02:51:19;;;;;;;2.40;1.90;;;22.50;99.90;;;22.65;55.92;102012.50;4958178;28;106105;-53
2023/06/24 02:53:46;;;;;;;2.30;2.00;;;22.60;99.90;;;22.65;55.85;102017.88;4973564;28;102274;-54
2023/06/24 02:56:13;;;;;;;1.93;1.50;;;22.60;99.90;;;22.63;55.90;102020.69;4948539;28;97915;-54
2023/06/24 02:58:40;;;;;;;2.23;1.60;;;22.50;99.90;;;22.63;55.87;102018.00;4974126;28;97381;-52
2023/06/24 03:01:09;;;;;;;2.33;1.80;;;22.50;99.90;;;22.64;55.85;102017.03;4958248;28;100078;-53
2023/06/24 03:03:35;;;;;;;2.53;1.77;;;22.60;99.90;;;22.63;55.74;102014.44;4948690;28;97275;-56
2023/06/24 03:06:02;;;;;;;2.10;1.87;;;22.60;99.90;;;22.64;55.90;102017.03;4983276;28;97787;-54
2023/06/24 03:08:28;;;;;;;1.90;1.53;;;22.60;99.90;;;22.65;55.86;102016.06;4941951;28;97565;-54
2023/06/24 03:10:56;;;;;;;2.47;2.00;;;22.60;99.90;;;22.65;55.98;102007.13;4974429;28;97240;-54
2023/06/24 03:13:23;;;;;;;1.97;1.73;;;22.50;99.90;;;22.64;55.86;102005.41;4977283;28;97312;-55
2023/06/24 03:15:48;;;;;;;2.77;1.90;;;22.50;99.90;;;22.61;55.61;102009.16;4974372;27;96830;-56
2023/06/24 03:18:16;;;;;;;2.60;1.87;;;22.50;99.90;;;22.54;56.13;102005.13;4977304;27;106589;-54
2023/06/24 03:20:42;;;;;;;3.33;2.47;;;22.40;99.90;;;22.49;56.23;102018.03;4958935;28;97946;-55
2023/06/24 03:23:09;;;;;;;2.63;2.17;;;22.20;99.90;;;22.43;56.45;102023.81;4977930;28;99569;-54
2023/06/24 03:25:35;;;;;;;2.03;1.83;;;22.20;99.90;;;22.41;56.69;102015.81;4978077;28;97368;-54
2023/06/24 03:28:03;;;;;;;2.90;2.20;;;22.20;99.90;;;22.41;56.56;102023.88;4959563;28;97256;-52
2023/06/24 03:30:29;;;;;;;3.40;1.70;;;22.20;99.90;;;22.43;56.50;102021.97;4977726;28;103942;-53
2023/06/24 03:32:57;;;;;;;2.07;1.80;;;22.30;99.90;;;22.45;56.51;102028.13;4975077;28;97412;-55
2023/06/24 03:35:23;;;;;;;2.27;1.60;;;22.30;99.90;;;22.46;56.46;102029.84;4974668;28;97238;-53
2023/06/24 03:37:49;;;;;;;1.90;1.50;;;22.30;99.90;;;22.47;56.49;102041.47;4960823;28;106357;-56
2023/06/24 03:40:17;;;;;;;2.07;1.50;;;22.30;99.90;;;22.48;56.37;102038.66;4957152;28;97440;-53
2023/06/24 03:42:43;;;;;;;2.43;1.90;;;22.30;99.90;;;22.49;56.55;102036.84;4945116;28;98579;-55
2023/06/24 03:45:09;;;;;;;1.73;1.60;;;22.30;99.90;;;22.48;56.36;102029.75;4981640;27;97319;-55
2023/06/24 03:47:35;;;;;;;2.87;2.10;;;22.30;99.90;;;22.46;56.50;102032.53;4970338;28;97994;-55
2023/06/24 03:50:01;;;;;;;2.53;2.03;;;22.30;99.90;;;22.45;56.51;102032.63;4971746;28;97355;-52
2023/06/24 03:52:26;;;;;;;2.70;1.60;;;22.30;99.90;;;22.44;56.48;102030.91;4974754;28;97381;-55
2023/06/24 03:54:53;;;;;;;2.70;1.83;;;22.30;99.90;;;22.44;56.62;102020.16;4978882;28;97457;-52
2023/06/24 03:57:19;;;;;;;2.97;1.80;;;22.30;99.90;;;22.44;56.35;102026.38;4969435;28;98061;-54
2023/06/24 03:59:44;;;;;;;4.63;2.90;;;22.30;99.90;;;22.40;55.57;102034.72;4960041;27;101851;-55
2023/06/24 04:02:10;;;;;;;3.87;3.03;;;22.20;99.90;;;22.33;56.13;102033.41;4961622;28;97129;-54
2023/06/24 04:04:36;;;;;;;4.63;3.07;;;22.10;99.90;;;22.26;56.84;102039.16;4981507;28;97314;-54
2023/06/24 04:07:02;;;;;;;3.70;2.60;;;21.90;99.90;;;22.19;56.79;102029.75;4970772;28;97863;-54
2023/06/24 04:09:30;;;;;;;4.07;3.03;;;21.80;99.90;;;22.14;56.85;102029.19;4982762;27;97349;-56
2023/06/24 04:11:55;;;;;;;2.30;2.10;;;21.80;99.90;;;22.09;57.54;102038.50;4983230;27;96878;-54
2023/06/24 04:14:21;;;;;;;2.80;1.77;;;21.70;99.90;;;22.07;57.56;102041.28;4984291;28;106103;-54
2023/06/24 04:16:47;;;;;;;4.00;2.80;;;21.70;99.90;;;21.98;57.67;102049.84;4974450;28;97394;-55
2023/06/24 04:19:12;;;;;;;3.77;2.53;;;21.60;99.90;;;21.96;57.78;102054.47;4972574;28;105162;-53
2023/06/24 04:21:38;;;;;;;2.53;1.80;;;21.60;99.90;;;21.99;57.83;102057.00;4963656;28;107355;-55
2023/06/24 04:24:04;;;;;;;2.83;1.90;;;21.60;99.90;;;21.99;57.84;102062.38;4974451;28;97618;-55
2023/06/24 04:26:30;;;;;;;4.07;3.10;;;21.70;99.90;;;22.02;57.27;102061.31;4976178;28;97563;-54
2023/06/24 04:28:56;;;;;;;2.03;1.43;;;21.70;99.90;;;22.03;57.80;102063.91;4973688;28;97048;-55
2023/06/24 04:31:22;;;;;;;4.03;2.83;;;21.80;99.90;;;22.09;57.17;102068.91;4970392;28;97259;-55
2023/06/24 04:33:48;;;;;;;2.20;1.70;;;21.90;99.90;;;22.10;57.68;102069.78;4976698;28;97191;-54
2023/06/24 04:36:13;;;;;;;5.87;3.63;;;21.90;99.90;;;22.14;56.91;102082.94;4973595;28;109740;-56
2023/06/24 04:38:39;;;;;;;1.60;1.50;;;21.90;99.90;;;22.17;57.26;102080.06;4978306;28;97198;-55
2023/06/24 04:41:05;;;;;;;3.20;2.03;;;22.00;99.90;;;22.17;57.32;102066.63;4971562;28;97079;-54
2023/06/24 04:43:31;;;;;;;1.83;1.63;;;22.10;99.90;;;22.18;57.27;102068.34;4979464;28;97376;-56
2023/06/24 04:45:57;;;;;;;1.83;1.53;;;22.10;99.90;;;22.22;57.44;102063.63;4972046;28;97951;-56
2023/06/24 04:48:26;;;;;;;2.10;1.53;;;22.20;99.90;;;22.27;57.19;102067.75;4973395;28;98041;-54
2023/06/24 04:50:54;;;;;;;1.80;1.40;;;22.30;99.90;;;22.31;57.16;102062.22;4976379;28;99253;-56
2023/06/24 04:53:21;;;;;;;2.23;1.80;;;22.30;99.90;;;22.32;57.01;102064.81;4979155;28;97270;-56
2023/06/24 04:55:47;;;;;;;1.90;1.60;;;22.30;99.90;;;22.36;56.88;102066.31;4962067;28;97377;-56
2023/06/24 04:58:13;;;;;;;2.17;1.87;;;22.30;99.90;;;22.37;56.83;102067.19;4980934;28;96917;-60
2023/06/24 05:00:38;;;;;;;3.80;2.80;;;22.40;99.90;;;22.43;55.68;102072.19;4982113;28;96895;-53
2023/06/24 05:03:04;;;;;;;2.53;1.77;;;22.40;99.90;;;22.46;56.45;102061.25;4952433;28;99474;-55
2023/06/24 05:05:30;;;;;;;2.17;1.67;;;22.40;99.90;;;22.50;56.39;102070.84;4983982;27;97868;-55
2023/06/24 05:07:56;;;;;;;2.23;1.90;;;22.40;99.90;;;22.47;56.59;102071.03;4970030;28;97380;-56
2023/06/24 05:10:22;;;;;;;2.30;2.10;;;22.40;99.90;;;22.49;56.54;102066.41;4974934;27;97743;-55
2023/06/24 05:12:48;;;;;;;6.73;2.87;;;22.50;99.90;;;22.51;54.97;102064.50;4979181;28;116407;-54
2023/06/24 05:15:13;;;;;;;3.30;2.23;;;22.40;99.90;;;22.53;55.95;102070.63;4959866;28;97942;-56
2023/06/24 05:17:40;;;;;;;4.83;3.67;;;22.40;99.90;;;22.49;54.78;102066.41;4964824;28;103685;-55
2023/06/24 05:20:06;;;;;;;4.70;3.63;;;22.40;99.90;;;22.49;55.56;102061.03;4982712;28;97615;-56
2023/06/24 05:22:32;;;;;;;2.33;1.83;;;22.40;99.90;;;22.46;56.25;102072.00;4977126;28;97327;-52
2023/06/24 05:24:58;;;;;;;2.23;2.03;;;22.40;99.90;;;22.46;56.52;102067.47;4958211;28;107482;-55
2023/06/24 05:27:24;;;;;;;3.30;1.87;;;22.40;99.90;;;22.45;56.40;102060.38;4979348;28;105616;-54
2023/06/24 05:29:49;;;;;;;2.37;1.53;;;22.40;99.90;;;22.44;56.52;102063.16;4975599;28;97274;-54
2023/06/24 05:32:17;;;;;;;3.10;2.03;;;22.40;99.90;;;22.46;56.67;102061.25;4964869;28;97418;-55
2023/06/24 05:34:43;;;;;;;4.43;3.40;;;22.40;99.90;;;22.51;56.05;102064.50;4978649;28;100782;-58
2023/06/24 05:37:09;;;;;;;5.10;3.07;;;22.50;99.90;;;22.51;55.85;102065.34;4971463;28;122478;-55
2023/06/24 05:39:35;;;;;;;2.63;2.30;;;22.40;99.90;;;22.51;55.81;102065.34;4983993;27;97153;-54
2023/06/24 05:42:00;;;;;;;4.20;3.10;;;22.40;99.90;;;22.49;55.98;102066.41;4973947;27;97150;-53
2023/06/24 05:44:26;;;;;;;4.17;2.73;;;22.40;99.90;;;22.49;56.42;102061.03;4978088;27;97453;-55
2023/06/24 05:46:52;;;;;;;6.00;3.87;;;22.40;99.90;;;22.46;55.48;102066.63;4977367;28;97507;-54
2023/06/24 05:49:18;;;;;;;3.17;2.13;;;22.40;99.90;;;22.45;56.43;102073.81;4976385;28;107036;-54
2023/06/24 05:51:43;;;;;;;4.63;3.40;;;22.40;99.90;;;22.47;55.99;102065.66;4976464;28;97211;-57
2023/06/24 05:54:09;;;;;;;2.73;1.80;;;22.40;99.90;;;22.46;56.47;102067.47;4988691;28;97444;-54
2023/06/24 05:56:36;;;;;;;2.67;1.97;;;22.40;99.90;;;22.49;56.42;102071.78;4974804;28;96970;-54
2023/06/24 05:59:02;;;;;;;3.87;2.20;;;22.40;99.90;;;22.49;56.29;102069.09;4971842;27;97558;-55
2023/06/24 06:01:28;;;;;;;2.20;1.93;;;22.50;99.90;;;22.48;56.35;102064.69;4975828;28;108530;-54
2023/06/24 06:03:53;;;;;;;2.23;1.80;;;22.50;99.90;;;22.46;56.48;102061.25;4976644;28;111120;-55
2023/06/24 06:06:19;;;;;;;2.87;1.77;;;22.40;99.90;;;22.47;56.46;102062.97;4978226;27;103855;-55
2023/06/24 06:08:45;;;;;;;3.17;2.37;;;22.50;99.90;;;22.48;56.33;102070.06;4954999;28;102862;-56
2023/06/24 06:11:10;;;;;;;2.30;1.90;;;22.50;99.90;;;22.51;56.31;102075.25;4968799;28;99522;-54
2023/06/24 06:13:36;;;;;;;7.03;3.13;;;22.50;99.90;;;22.54;56.21;102075.91;4970864;28;107004;-54
2023/06/24 06:16:02;;;;;;;2.07;1.67;;;22.50;99.90;;;22.54;56.40;102075.03;4976187;28;99246;-55
2023/06/24 06:18:28;;;;;;;3.60;2.43;;;22.50;99.90;;;22.56;56.22;102076.66;4967979;28;97350;-54
2023/06/24 06:20:54;;;;;;;7.10;4.00;;;22.50;99.90;;;22.53;56.38;102073.31;4977426;28;97185;-54
2023/06/24 06:23:20;;;;;;;2.63;2.03;;;22.50;99.90;;;22.54;56.25;102077.72;4979070;27;97623;-53
2023/06/24 06:25:46;;;;;;;2.60;2.07;;;22.50;99.90;;;22.51;56.45;102073.41;4972492;28;101291;-60
2023/06/24 06:28:11;;;;;;;2.73;2.00;;;22.50;99.90;;;22.55;56.25;102077.63;4981427;27;97027;-55
2023/06/24 06:30:39;;;;;;;5.10;3.77;;;22.50;99.90;;;22.63;57.55;102085.22;4978816;27;97220;-54
2023/06/24 06:33:05;;;;;;;5.77;4.13;;;22.60;99.90;;;22.65;56.98;102083.31;4973885;28;113623;-54
2023/06/24 06:35:30;;;;;;;2.60;2.27;;;22.60;99.90;;;22.63;56.28;102087.91;4961445;28;98395;-56
2023/06/24 06:37:57;;;;;;;8.20;4.33;;;22.50;99.90;;;22.62;57.64;102088.88;4975147;28;97086;-55
2023/06/24 06:40:23;;;;;;;2.73;2.43;;;22.50;99.90;;;22.55;56.50;102082.16;4960182;28;96920;-55
2023/06/24 06:42:50;;;;;;;8.40;4.50;;;22.40;99.90;;;22.59;57.46;102089.09;4989575;27;97198;-56
2023/06/24 06:45:16;;;;;;;6.77;4.33;;;22.50;99.90;;;22.60;58.12;102092.63;4983993;28;97510;-54
2023/06/24 06:47:41;;;;;;;8.40;5.50;;;22.40;99.90;;;22.52;58.25;102090.41;4987868;28;97397;-54
2023/06/24 06:50:08;;;;;;;10.37;5.97;;;22.40;99.90;;;22.55;57.40;102087.53;4982732;27;96865;-55
2023/06/24 06:52:34;;;;;;;3.37;2.70;;;22.40;99.90;;;22.53;56.39;102094.81;4982468;28;98544;-57
2023/06/24 06:55:00;;;;;;;7.67;4.97;;;22.40;99.90;;;22.56;58.22;102094.63;4971002;28;97316;-54
2023/06/24 06:57:26;;;;;;;8.87;5.67;;;22.40;99.90;;;22.58;59.39;102100.81;4958637;28;97500;-55
2023/06/24 06:59:53;;;;;;;7.40;5.83;;;22.40;99.90;;;22.56;59.24;102089.25;4976227;28;97279;-50
2023/06/24 07:02:19;;;;;;;12.70;5.47;;;22.40;99.90;;;22.54;58.85;102096.56;4978978;28;97437;-56
2023/06/24 07:04:45;;;;;;;8.53;5.67;;;22.40;99.90;;;22.53;57.28;102089.44;4977958;28;98412;-54
2023/06/24 07:07:11;;;;;;;10.77;5.60;;;22.40;99.90;;;22.55;58.31;102093.75;4976919;28;97226;-55
2023/06/24 07:09:37;;;;;;;10.00;6.03;;;22.40;99.90;;;22.55;59.34;102100.97;4975158;28;97115;-53
2023/06/24 07:12:03;;;;;;;7.80;5.63;;;22.40;99.90;;;22.53;59.59;102102.91;4978778;28;107074;-56
2023/06/24 07:14:29;;;;;;;3.80;2.70;;;22.40;99.90;;;22.54;56.66;102099.25;4981408;27;97496;-56
2023/06/24 07:16:55;;;;;;;7.40;5.03;;;22.40;99.90;;;22.57;59.27;102096.38;4981854;28;97554;-56
2023/06/24 07:19:21;;;;;;;5.63;4.63;;;22.40;99.90;;;22.57;57.93;102112.53;4977426;27;97545;-55
2023/06/24 07:21:47;;;;;;;9.10;5.50;;;22.40;99.90;;;22.60;58.30;102100.69;4979554;27;98512;-55
2023/06/24 07:24:13;;;;;;;7.07;4.93;;;22.50;99.90;;;22.60;59.18;102101.56;4988720;27;108537;-54
2023/06/24 07:26:38;;;;;;;5.07;3.30;;;22.50;99.90;;;22.58;56.82;102095.44;4962047;28;98981;-53
2023/06/24 07:29:07;;;;;;;6.47;4.43;;;22.50;99.90;;;22.60;57.95;102101.56;4981718;28;97325;-54
2023/06/24 07:31:34;;;;;;;6.53;5.23;;;22.50;99.90;;;22.64;59.25;102103.09;4969948;28;97448;-55
2023/06/24 07:33:59;;;;;;;4.07;3.33;;;22.50;99.90;;;22.65;57.32;102104.81;4957938;28;97527;-56
2023/06/24 07:36:25;;;;;;;6.47;5.07;;;22.60;99.90;;;22.69;58.14;102103.66;4978896;28;102290;-55
2023/06/24 07:38:51;;;;;;;8.00;5.47;;;22.60;99.90;;;22.69;57.20;102106.34;4984224;27;97158;-55
2023/06/24 07:41:17;;;;;;;8.37;5.47;;;22.60;99.90;;;22.71;57.88;102104.44;4978808;28;97925;-54
2023/06/24 07:43:43;;;;;;;5.43;4.13;;;22.60;99.90;;;22.69;56.37;102100.97;4939126;28;114571;-54
2023/06/24 07:46:08;;;;;;;3.47;2.80;;;22.70;99.90;;;22.67;55.98;102102.88;4975335;28;97360;-54
2023/06/24 07:48:34;;;;;;;6.10;3.90;;;22.60;99.90;;;22.68;56.11;102110.00;4963490;28;97173;-55
2023/06/24 07:51:00;;;;;;;3.23;2.27;;;22.70;99.90;;;22.69;56.07;102103.66;4970747;28;120145;-56
2023/06/24 07:53:26;;;;;;;8.07;5.17;;;22.70;99.90;;;22.77;58.08;102109.41;4976042;28;97414;-54
2023/06/24 07:55:51;;;;;;;8.03;5.43;;;22.70;99.90;;;22.79;56.77;102109.31;4976075;27;97605;-53
2023/06/24 07:58:19;;;;;;;8.13;5.53;;;22.70;99.90;;;22.79;56.56;102103.94;4981421;28;112199;-54
2023/06/24 08:00:45;;;;;;;12.00;5.20;;;22.70;99.90;;;22.79;56.46;102102.09;4976242;28;100367;-54
2023/06/24 08:03:13;;;;;;;9.03;5.20;;;22.70;99.90;;;22.80;56.15;102101.13;4976069;28;97433;-54
2023/06/24 08:05:39;;;;;;;8.77;4.90;;;22.70;99.90;;;22.82;56.26;102101.03;4969902;28;97331;-54
2023/06/24 08:08:05;;;;;;;7.63;4.80;;;22.70;99.90;;;22.85;56.33;102107.09;4976690;28;96987;-56
2023/06/24 08:10:31;;;;;;;5.97;3.87;;;22.80;99.90;;;22.80;55.78;102103.84;4972484;28;97166;-56
2023/06/24 08:12:57;;;;;;;8.37;5.40;;;22.80;99.90;;;22.85;56.05;102101.72;4973059;28;97138;-55
2023/06/24 08:15:23;;;;;;;7.50;4.67;;;22.80;99.90;;;22.87;55.68;102098.09;4975120;28;97208;-56
2023/06/24 08:17:55;;;;;;;9.57;4.80;;;22.80;99.90;;;22.85;56.22;102096.34;4976138;27;97912;-58
2023/06/24 08:20:22;;;;;;;8.30;5.73;;;22.80;99.90;;;22.89;56.77;102088.09;4975846;28;97954;-56
2023/06/24 08:22:48;;;;;;;8.03;5.40;;;22.80;99.90;;;22.91;55.76;102088.88;4946985;28;97374;-54
2023/06/24 08:25:14;;;;;;;5.47;3.73;;;22.90;99.90;;;22.90;55.80;102097.91;4981232;28;108681;-55
2023/06/24 08:27:58;;;;;;;9.67;5.40;;;22.90;99.90;;;22.94;57.42;102088.66;4981312;28;96985;-56
2023/06/24 08:30:25;;;;;;;9.63;5.27;;;22.90;99.90;;;22.98;57.03;102090.19;4973396;28;102986;-56
2023/06/24 08:32:50;;;;;;;7.07;5.47;;;23.00;99.90;;;23.00;56.36;102082.88;4976011;28;97305;-56
2023/06/24 08:35:16;;;;;;;9.30;6.07;;;23.00;99.90;;;23.04;55.68;102089.78;4981719;27;96962;-55
2023/06/24 08:37:42;;;;;;;5.63;3.93;;;23.00;99.90;;;23.05;55.44;102083.44;4975479;28;99666;-53
2023/06/24 08:40:08;;;;;;;10.17;6.40;;;23.00;99.90;;;23.07;56.77;102084.19;4977872;28;98023;-56
2023/06/24 08:42:34;;;;;;;9.60;5.27;;;23.10;99.90;;;23.11;56.89;102091.09;4977830;28;98301;-56
2023/06/24 08:45:00;;;;;;;12.17;7.03;;;23.10;99.90;;;23.15;55.54;102082.75;4982420;28;110170;-54
2023/06/24 08:47:28;;;;;;;4.50;3.10;;;23.10;99.90;;;23.08;55.37;102076.03;4978908;27;97219;-53
2023/06/24 08:50:03;;;;;;;3.67;2.60;;;23.10;99.90;;;22.97;55.29;102078.56;4984780;28;97479;-55
2023/06/24 08:52:32;;;;;;;7.63;4.77;;;23.00;99.90;;;22.98;56.64;102085.66;4969268;27;98315;-55
2023/06/24 08:55:01;;;;;;;7.97;5.90;;;23.00;99.90;;;23.06;56.37;102075.28;4960208;28;96937;-54
2023/06/24 08:57:26;;;;;;;7.17;3.70;;;23.00;99.90;;;23.09;55.21;102076.88;4973320;27;96834;-56
2023/06/24 08:59:53;;;;;;;9.63;5.60;;;23.10;99.90;;;23.02;55.34;102075.56;4984166;28;97798;-60
2023/06/24 09:02:19;;;;;;;10.53;5.93;;;23.10;99.90;;;23.12;55.91;102074.84;4979980;27;101094;-54
2023/06/24 09:04:45;;;;;;;8.38;4.93;;;23.10;99.90;;;23.21;56.11;102070.69;4981272;27;97170;-54
2023/06/24 09:07:11;;;;;;;8.35;5.82;;;23.20;99.90;;;23.20;55.02;102079.75;4984523;28;101562;-54
2023/06/24 09:09:46;;;;;;;8.33;5.80;;;23.20;99.90;;;23.23;54.85;102068.75;4983128;28;100540;-54
2023/06/24 09:12:14;;;;;;;8.47;4.20;;;23.20;99.90;;;23.27;56.15;102066.72;4980553;28;102175;-54
2023/06/24 09:14:40;;;;;;;11.83;5.37;;;23.30;99.90;;;23.30;54.50;102074.63;4973055;27;97398;-54
2023/06/24 09:17:09;;;;;;;13.48;5.03;;;23.40;99.90;;;23.34;54.13;102068.91;4980277;27;97415;-54
2023/06/24 09:19:36;;;;;;;8.45;4.57;;;23.40;99.90;;;23.39;53.50;102064.06;4961941;28;98054;-55
2023/06/24 09:22:16;;;;;;;8.75;5.10;;;23.40;99.90;;;23.42;53.81;102063.00;4985680;27;97585;-52
2023/06/24 09:24:42;;;;;;;8.25;4.95;;;23.50;99.90;;;23.43;53.65;102059.34;4965087;28;97572;-57
2023/06/24 09:27:07;;;;;;;9.98;4.55;;;23.50;99.90;;;23.42;53.67;102052.22;4974706;27;103891;-55
2023/06/24 09:29:35;;;;;;;6.90;4.28;;;23.50;99.90;;;23.39;53.73;102053.28;4965113;28;97353;-55
2023/06/24 09:32:05;;;;;;;7.47;4.38;;;23.50;99.90;;;23.44;53.74;102048.50;4978683;28;97682;-53
2023/06/24 09:34:32;;;;;;;7.63;4.10;;;23.50;99.90;;;23.48;53.84;102056.34;4981989;28;97165;-55
2023/06/24 09:36:59;;;;;;;5.57;3.15;;;23.50;99.90;;;23.44;53.75;102056.56;4973357;28;99857;-54
2023/06/24 09:39:29;;;;;;;6.70;4.03;;;23.50;99.90;;;23.38;54.98;102051.56;4957687;28;97309;-54
2023/06/24 09:42:00;;;;;;;8.52;4.57;;;23.40;99.90;;;23.47;54.74;102044.72;4955255;28;96845;-54
2023/06/24 09:44:27;;;;;;;4.40;3.15;;;23.50;99.90;;;23.47;53.61;102049.25;4975046;28;97283;-52
2023/06/24 09:46:55;;;;;;;6.57;4.25;;;23.50;99.90;;;23.34;55.57;102044.69;4975991;28;97589;-55
2023/06/24 09:49:21;;;;;;;5.65;3.92;;;23.40;99.90;;;23.40;53.75;102041.56;4964610;28;97613;-54
2023/06/24 09:51:50;;;;;;;9.80;3.90;;;23.40;99.90;;;23.51;53.72;102039.97;4970478;28;97634;-53
2023/06/24 09:54:16;;;;;;;6.57;3.20;;;23.60;99.90;;;23.52;53.58;102037.19;4965164;28;97396;-55
2023/06/24 09:56:53;;;;;;;3.92;2.47;;;23.60;99.90;;;23.58;53.59;102030.53;4965025;28;97580;-56
2023/06/24 09:59:21;;;;;;;4.72;2.67;;;23.60;99.90;;;23.69;53.94;102028.81;4962661;27;97876;-53
2023/06/24 10:01:48;;;;;;;6.13;3.50;;;23.70;99.90;;;23.70;53.20;102037.75;4958260;28;97517;-56
2023/06/24 10:04:18;;;;;;;5.38;3.10;;;23.80;99.90;;;23.73;52.73;102034.88;4958177;28;98053;-51
2023/06/24 10:06:45;;;;;;;7.40;3.00;;;23.80;99.90;;;23.83;52.40;102035.94;4951416;28;97218;-54
2023/06/24 10:09:13;;;;;;;5.82;3.10;;;23.90;99.90;;;23.93;51.75;102031.66;4956809;28;98311;-54
2023/06/24 10:11:39;;;;;;;7.82;4.00;;;24.00;99.90;;;23.95;51.53;102024.31;4970921;28;101038;-53
2023/06/24 10:14:06;;;;;;;3.50;2.58;;;24.10;99.90;;;23.83;52.25;102021.59;4950884;27;97617;-52
2023/06/24 10:16:32;;;;;;;4.57;2.40;;;23.90;99.90;;;23.79;52.88;102012.03;4954521;28;96949;-56